sensor_id;sensor_type;location;lat;lon;timestamp;temperature;humidity
40848;DHT22;26570;50.962;5.340;2024-03-29T00:01:58;9.70;99.90
40848;DHT22;26570;50.962;5.340;2024-03-29T00:04:43;9.50;99.90
40848;DHT22;26570;50.962;5.340;2024-03-29T00:07:28;9.50;99.90
40848;DHT22;26570;50.962;5.340;2024-03-29T00:10:24;9.30;99.90
40848;DHT22;26570;50.962;5.340;2024-03-29T00:13:49;9.30;99.90
40848;DHT22;26570;50.962;5.340;2024-03-29T00:16:40;9.40;99.90
40848;DHT22;26570;50.962;5.340;2024-03-29T00:19:31;9.30;99.90
40848;DHT22;26570;50.962;5.340;2024-03-29T00:22:22;9.20;99.90
40848;DHT22;26570;50.962;5.340;2024-03-29T00:25:09;9.30;99.90
40848;DHT22;26570;50.962;5.340;2024-03-29T00:28:03;9.30;99.90
40848;DHT22;26570;50.962;5.340;2024-03-29T00:30:48;9.40;99.90
40848;DHT22;26570;50.962;5.340;2024-03-29T00:33:54;9.40;99.90
40848;DHT22;26570;50.962;5.340;2024-03-29T00:36:43;9.40;99.90
40848;DHT22;26570;50.962;5.340;2024-03-29T00:39:52;9.40;99.90
40848;DHT22;26570;50.962;5.340;2024-03-29T00:43:07;9.60;99.90
40848;DHT22;26570;50.962;5.340;2024-03-29T00:46:22;9.70;99.90
40848;DHT22;26570;50.962;5.340;2024-03-29T00:49:16;9.70;99.90
40848;DHT22;26570;50.962;5.340;2024-03-29T00:52:02;9.60;99.90
40848;DHT22;26570;50.962;5.340;2024-03-29T00:55:14;9.60;99.90
40848;DHT22;26570;50.962;5.340;2024-03-29T00:58:03;9.70;99.90
40848;DHT22;26570;50.962;5.340;2024-03-29T01:00:48;9.70;99.90
40848;DHT22;26570;50.962;5.340;2024-03-29T01:03:39;9.80;99.90
40848;DHT22;26570;50.962;5.340;2024-03-29T01:06:30;9.90;99.90
40848;DHT22;26570;50.962;5.340;2024-03-29T01:09:15;9.90;99.90
40848;DHT22;26570;50.962;5.340;2024-03-29T01:12:29;9.90;99.90
40848;DHT22;26570;50.962;5.340;2024-03-29T01:15:20;10.20;99.90
40848;DHT22;26570;50.962;5.340;2024-03-29T01:18:14;10.10;99.90
40848;DHT22;26570;50.962;5.340;2024-03-29T01:20:59;10.00;99.90
40848;DHT22;26570;50.962;5.340;2024-03-29T01:23:48;10.10;99.90
40848;DHT22;26570;50.962;5.340;2024-03-29T01:26:34;10.10;99.90
40848;DHT22;26570;50.962;5.340;2024-03-29T01:29:56;10.20;99.90
40848;DHT22;26570;50.962;5.340;2024-03-29T01:32:48;10.20;99.90
40848;DHT22;26570;50.962;5.340;2024-03-29T01:35:36;10.30;99.90
40848;DHT22;26570;50.962;5.340;2024-03-29T01:38:28;10.30;99.90
40848;DHT22;26570;50.962;5.340;2024-03-29T01:41:16;10.30;99.90
40848;DHT22;26570;50.962;5.340;2024-03-29T01:44:02;10.40;99.90
40848;DHT22;26570;50.962;5.340;2024-03-29T01:46:48;10.30;99.90
40848;DHT22;26570;50.962;5.340;2024-03-29T01:49:35;10.40;99.90
40848;DHT22;26570;50.962;5.340;2024-03-29T01:52:43;10.40;99.90
40848;DHT22;26570;50.962;5.340;2024-03-29T01:55:33;10.50;99.90
40848;DHT22;26570;50.962;5.340;2024-03-29T01:58:48;10.60;99.90
40848;DHT22;26570;50.962;5.340;2024-03-29T02:01:40;10.60;99.90
40848;DHT22;26570;50.962;5.340;2024-03-29T02:04:30;10.70;99.90
40848;DHT22;26570;50.962;5.340;2024-03-29T02:07:39;10.70;99.90
40848;DHT22;26570;50.962;5.340;2024-03-29T02:10:24;10.60;99.90
40848;DHT22;26570;50.962;5.340;2024-03-29T02:13:18;10.70;99.90
40848;DHT22;26570;50.962;5.340;2024-03-29T02:16:04;10.70;99.90
40848;DHT22;26570;50.962;5.340;2024-03-29T02:18:50;10.60;99.90
40848;DHT22;26570;50.962;5.340;2024-03-29T02:22:01;10.70;99.90
40848;DHT22;26570;50.962;5.340;2024-03-29T02:25:00;10.70;99.90
40848;DHT22;26570;50.962;5.340;2024-03-29T02:27:51;10.90;99.90
40848;DHT22;26570;50.962;5.340;2024-03-29T02:30:58;10.70;99.90
40848;DHT22;26570;50.962;5.340;2024-03-29T02:33:46;10.50;99.90
40848;DHT22;26570;50.962;5.340;2024-03-29T02:36:40;10.50;99.90
40848;DHT22;26570;50.962;5.340;2024-03-29T02:39:50;10.60;99.90
40848;DHT22;26570;50.962;5.340;2024-03-29T02:42:36;10.60;99.90
40848;DHT22;26570;50.962;5.340;2024-03-29T02:45:21;10.60;99.90
40848;DHT22;26570;50.962;5.340;2024-03-29T02:48:08;10.50;99.90
40848;DHT22;26570;50.962;5.340;2024-03-29T02:51:18;10.30;99.90
40848;DHT22;26570;50.962;5.340;2024-03-29T02:54:07;10.10;99.90
40848;DHT22;26570;50.962;5.340;2024-03-29T02:56:57;10.00;99.90
40848;DHT22;26570;50.962;5.340;2024-03-29T02:59:51;9.90;99.90
40848;DHT22;26570;50.962;5.340;2024-03-29T03:02:40;9.70;99.90
40848;DHT22;26570;50.962;5.340;2024-03-29T03:05:29;9.60;99.90
40848;DHT22;26570;50.962;5.340;2024-03-29T03:08:23;9.50;99.90
40848;DHT22;26570;50.962;5.340;2024-03-29T03:11:29;9.40;99.90
40848;DHT22;26570;50.962;5.340;2024-03-29T03:14:17;9.30;99.90
40848;DHT22;26570;50.962;5.340;2024-03-29T03:17:31;9.30;99.90
40848;DHT22;26570;50.962;5.340;2024-03-29T03:20:24;9.30;99.90
40848;DHT22;26570;50.962;5.340;2024-03-29T03:23:42;9.10;99.90
40848;DHT22;26570;50.962;5.340;2024-03-29T03:26:48;9.30;99.90
40848;DHT22;26570;50.962;5.340;2024-03-29T03:29:37;9.40;99.90
40848;DHT22;26570;50.962;5.340;2024-03-29T03:32:22;9.30;99.90
40848;DHT22;26570;50.962;5.340;2024-03-29T03:35:14;9.30;99.90
40848;DHT22;26570;50.962;5.340;2024-03-29T03:37:59;9.20;99.90
40848;DHT22;26570;50.962;5.340;2024-03-29T03:40:45;9.10;99.90
40848;DHT22;26570;50.962;5.340;2024-03-29T03:43:58;9.10;99.90
40848;DHT22;26570;50.962;5.340;2024-03-29T03:46:43;9.10;99.90
40848;DHT22;26570;50.962;5.340;2024-03-29T03:49:51;9.20;99.90
40848;DHT22;26570;50.962;5.340;2024-03-29T03:52:36;9.20;99.90
40848;DHT22;26570;50.962;5.340;2024-03-29T03:55:22;9.30;99.90
40848;DHT22;26570;50.962;5.340;2024-03-29T03:58:07;9.30;99.90
40848;DHT22;26570;50.962;5.340;2024-03-29T04:00:56;9.20;99.90
40848;DHT22;26570;50.962;5.340;2024-03-29T04:03:45;9.30;99.90
40848;DHT22;26570;50.962;5.340;2024-03-29T04:06:32;9.30;99.90
40848;DHT22;26570;50.962;5.340;2024-03-29T04:09:51;9.30;99.90
40848;DHT22;26570;50.962;5.340;2024-03-29T04:12:59;9.30;99.90
40848;DHT22;26570;50.962;5.340;2024-03-29T04:15:53;9.30;99.90
40848;DHT22;26570;50.962;5.340;2024-03-29T04:18:38;9.20;99.90
40848;DHT22;26570;50.962;5.340;2024-03-29T04:21:23;9.10;99.90
40848;DHT22;26570;50.962;5.340;2024-03-29T04:24:10;9.10;99.90
40848;DHT22;26570;50.962;5.340;2024-03-29T04:26:56;9.20;99.90
40848;DHT22;26570;50.962;5.340;2024-03-29T04:29:42;9.20;99.90
40848;DHT22;26570;50.962;5.340;2024-03-29T04:32:50;9.10;99.90
40848;DHT22;26570;50.962;5.340;2024-03-29T04:36:00;9.20;99.90
40848;DHT22;26570;50.962;5.340;2024-03-29T04:38:51;9.20;99.90
40848;DHT22;26570;50.962;5.340;2024-03-29T04:41:36;9.20;99.90
40848;DHT22;26570;50.962;5.340;2024-03-29T04:44:45;9.20;99.90
40848;DHT22;26570;50.962;5.340;2024-03-29T04:47:31;9.20;99.90
40848;DHT22;26570;50.962;5.340;2024-03-29T04:50:16;9.30;99.90
40848;DHT22;26570;50.962;5.340;2024-03-29T04:53:30;9.30;99.90
40848;DHT22;26570;50.962;5.340;2024-03-29T04:56:17;9.20;99.90
40848;DHT22;26570;50.962;5.340;2024-03-29T04:59:06;9.10;99.90
40848;DHT22;26570;50.962;5.340;2024-03-29T05:02:23;9.10;99.90
40848;DHT22;26570;50.962;5.340;2024-03-29T05:05:08;9.10;99.90
40848;DHT22;26570;50.962;5.340;2024-03-29T05:08:16;9.10;99.90
40848;DHT22;26570;50.962;5.340;2024-03-29T05:11:03;9.10;99.90
40848;DHT22;26570;50.962;5.340;2024-03-29T05:14:16;9.10;99.90
40848;DHT22;26570;50.962;5.340;2024-03-29T05:17:03;9.20;99.90
40848;DHT22;26570;50.962;5.340;2024-03-29T05:19:48;9.10;99.90
40848;DHT22;26570;50.962;5.340;2024-03-29T05:22:33;9.00;99.90
40848;DHT22;26570;50.962;5.340;2024-03-29T05:25:19;9.00;99.90
40848;DHT22;26570;50.962;5.340;2024-03-29T05:28:05;9.00;99.90
40848;DHT22;26570;50.962;5.340;2024-03-29T05:30:55;9.00;99.90
40848;DHT22;26570;50.962;5.340;2024-03-29T05:33:41;9.00;99.90
40848;DHT22;26570;50.962;5.340;2024-03-29T05:36:27;9.10;99.90
40848;DHT22;26570;50.962;5.340;2024-03-29T05:39:12;9.20;99.90
40848;DHT22;26570;50.962;5.340;2024-03-29T05:42:20;9.20;99.90
40848;DHT22;26570;50.962;5.340;2024-03-29T05:45:20;9.10;99.90
40848;DHT22;26570;50.962;5.340;2024-03-29T05:48:07;9.00;99.90
40848;DHT22;26570;50.962;5.340;2024-03-29T05:51:14;9.00;99.90
40848;DHT22;26570;50.962;5.340;2024-03-29T05:53:59;9.20;99.90
40848;DHT22;26570;50.962;5.340;2024-03-29T05:56:44;9.10;99.90
40848;DHT22;26570;50.962;5.340;2024-03-29T05:59:52;8.90;99.90
40848;DHT22;26570;50.962;5.340;2024-03-29T06:02:37;8.90;99.90
40848;DHT22;26570;50.962;5.340;2024-03-29T06:05:23;8.90;99.90
40848;DHT22;26570;50.962;5.340;2024-03-29T06:08:08;8.80;99.90
40848;DHT22;26570;50.962;5.340;2024-03-29T06:10:54;8.80;99.90
40848;DHT22;26570;50.962;5.340;2024-03-29T06:13:42;8.90;99.90
40848;DHT22;26570;50.962;5.340;2024-03-29T06:16:38;9.10;99.90
40848;DHT22;26570;50.962;5.340;2024-03-29T06:20:05;9.00;99.90
40848;DHT22;26570;50.962;5.340;2024-03-29T06:22:57;9.00;99.90
40848;DHT22;26570;50.962;5.340;2024-03-29T06:25:45;9.10;99.90
40848;DHT22;26570;50.962;5.340;2024-03-29T06:28:31;9.20;99.90
40848;DHT22;26570;50.962;5.340;2024-03-29T06:31:57;9.40;99.90
40848;DHT22;26570;50.962;5.340;2024-03-29T06:34:44;9.50;99.90
40848;DHT22;26570;50.962;5.340;2024-03-29T06:37:30;9.40;99.90
40848;DHT22;26570;50.962;5.340;2024-03-29T06:40:19;9.40;99.90
40848;DHT22;26570;50.962;5.340;2024-03-29T06:43:04;9.50;99.90
40848;DHT22;26570;50.962;5.340;2024-03-29T06:45:49;9.60;99.90
40848;DHT22;26570;50.962;5.340;2024-03-29T06:48:35;9.70;99.90
40848;DHT22;26570;50.962;5.340;2024-03-29T06:51:20;9.60;99.90
40848;DHT22;26570;50.962;5.340;2024-03-29T06:54:05;9.70;99.90
40848;DHT22;26570;50.962;5.340;2024-03-29T06:56:51;9.70;99.90
40848;DHT22;26570;50.962;5.340;2024-03-29T06:59:59;9.70;99.90
40848;DHT22;26570;50.962;5.340;2024-03-29T07:03:22;9.80;99.90
40848;DHT22;26570;50.962;5.340;2024-03-29T07:06:29;9.90;99.90
40848;DHT22;26570;50.962;5.340;2024-03-29T07:09:14;10.10;99.90
40848;DHT22;26570;50.962;5.340;2024-03-29T07:11:59;10.20;99.90
40848;DHT22;26570;50.962;5.340;2024-03-29T07:15:07;10.20;99.90
40848;DHT22;26570;50.962;5.340;2024-03-29T07:17:52;10.20;99.90
40848;DHT22;26570;50.962;5.340;2024-03-29T07:20:38;10.40;99.90
40848;DHT22;26570;50.962;5.340;2024-03-29T07:23:23;10.40;99.90
40848;DHT22;26570;50.962;5.340;2024-03-29T07:26:32;10.40;99.90
40848;DHT22;26570;50.962;5.340;2024-03-29T07:29:17;10.40;99.90
40848;DHT22;26570;50.962;5.340;2024-03-29T07:32:02;10.50;99.90
40848;DHT22;26570;50.962;5.340;2024-03-29T07:34:47;10.50;99.90
40848;DHT22;26570;50.962;5.340;2024-03-29T07:37:33;10.40;99.90
40848;DHT22;26570;50.962;5.340;2024-03-29T07:40:18;10.40;99.90
40848;DHT22;26570;50.962;5.340;2024-03-29T07:43:06;10.50;99.90
40848;DHT22;26570;50.962;5.340;2024-03-29T07:46:18;10.60;99.90
40848;DHT22;26570;50.962;5.340;2024-03-29T07:49:07;10.90;99.90
40848;DHT22;26570;50.962;5.340;2024-03-29T07:51:52;11.00;99.90
40848;DHT22;26570;50.962;5.340;2024-03-29T07:54:37;11.20;99.90
40848;DHT22;26570;50.962;5.340;2024-03-29T07:57:23;11.40;99.90
40848;DHT22;26570;50.962;5.340;2024-03-29T08:00:08;11.60;99.90
40848;DHT22;26570;50.962;5.340;2024-03-29T08:03:17;11.80;99.90
40848;DHT22;26570;50.962;5.340;2024-03-29T08:06:03;11.80;99.90
40848;DHT22;26570;50.962;5.340;2024-03-29T08:08:51;11.80;99.90
40848;DHT22;26570;50.962;5.340;2024-03-29T08:11:36;12.20;99.90
40848;DHT22;26570;50.962;5.340;2024-03-29T08:14:21;12.40;99.90
40848;DHT22;26570;50.962;5.340;2024-03-29T08:17:06;12.40;99.90
40848;DHT22;26570;50.962;5.340;2024-03-29T08:20:21;12.60;99.90
40848;DHT22;26570;50.962;5.340;2024-03-29T08:23:14;12.80;99.90
40848;DHT22;26570;50.962;5.340;2024-03-29T08:25:59;13.00;99.90
40848;DHT22;26570;50.962;5.340;2024-03-29T08:28:45;13.10;99.90
40848;DHT22;26570;50.962;5.340;2024-03-29T08:31:31;13.20;99.90
40848;DHT22;26570;50.962;5.340;2024-03-29T08:34:22;13.40;99.90
40848;DHT22;26570;50.962;5.340;2024-03-29T08:37:06;13.60;99.90
40848;DHT22;26570;50.962;5.340;2024-03-29T08:39:52;13.70;99.90
40848;DHT22;26570;50.962;5.340;2024-03-29T08:42:37;13.80;99.90
40848;DHT22;26570;50.962;5.340;2024-03-29T08:45:22;13.60;99.90
40848;DHT22;26570;50.962;5.340;2024-03-29T08:48:31;13.60;99.90
40848;DHT22;26570;50.962;5.340;2024-03-29T08:51:17;13.60;99.90
40848;DHT22;26570;50.962;5.340;2024-03-29T08:54:02;13.80;99.90
40848;DHT22;26570;50.962;5.340;2024-03-29T08:56:49;13.90;99.90
40848;DHT22;26570;50.962;5.340;2024-03-29T08:59:35;13.70;99.90
40848;DHT22;26570;50.962;5.340;2024-03-29T09:02:20;13.40;99.90
40848;DHT22;26570;50.962;5.340;2024-03-29T09:05:31;13.50;99.90
40848;DHT22;26570;50.962;5.340;2024-03-29T09:08:17;13.50;99.90
40848;DHT22;26570;50.962;5.340;2024-03-29T09:11:25;13.50;99.90
40848;DHT22;26570;50.962;5.340;2024-03-29T09:14:10;13.30;99.90
40848;DHT22;26570;50.962;5.340;2024-03-29T09:17:24;13.40;99.90
40848;DHT22;26570;50.962;5.340;2024-03-29T09:20:11;13.30;99.90
40848;DHT22;26570;50.962;5.340;2024-03-29T09:23:18;13.50;99.90
40848;DHT22;26570;50.962;5.340;2024-03-29T09:26:08;13.60;99.90
40848;DHT22;26570;50.962;5.340;2024-03-29T09:28:53;13.50;99.90
40848;DHT22;26570;50.962;5.340;2024-03-29T09:32:05;13.60;99.90
40848;DHT22;26570;50.962;5.340;2024-03-29T09:35:21;13.70;99.90
40848;DHT22;26570;50.962;5.340;2024-03-29T09:38:06;13.70;99.90
40848;DHT22;26570;50.962;5.340;2024-03-29T09:43:43;13.50;99.90
40848;DHT22;26570;50.962;5.340;2024-03-29T09:46:32;13.40;99.90
40848;DHT22;26570;50.962;5.340;2024-03-29T09:49:41;13.50;99.90
40848;DHT22;26570;50.962;5.340;2024-03-29T09:52:29;13.60;99.90
40848;DHT22;26570;50.962;5.340;2024-03-29T09:55:14;13.60;99.90
40848;DHT22;26570;50.962;5.340;2024-03-29T09:58:23;13.70;99.90
40848;DHT22;26570;50.962;5.340;2024-03-29T10:01:08;13.60;99.90
40848;DHT22;26570;50.962;5.340;2024-03-29T10:03:55;13.70;99.90
40848;DHT22;26570;50.962;5.340;2024-03-29T10:06:44;13.70;99.90
40848;DHT22;26570;50.962;5.340;2024-03-29T10:09:30;14.10;99.90
40848;DHT22;26570;50.962;5.340;2024-03-29T10:12:20;14.40;99.90
40848;DHT22;26570;50.962;5.340;2024-03-29T10:15:05;14.50;99.90
40848;DHT22;26570;50.962;5.340;2024-03-29T10:17:55;14.70;99.90
40848;DHT22;26570;50.962;5.340;2024-03-29T10:21:04;14.70;99.90
40848;DHT22;26570;50.962;5.340;2024-03-29T10:23:49;14.80;99.90
40848;DHT22;26570;50.962;5.340;2024-03-29T10:26:37;14.80;99.90
40848;DHT22;26570;50.962;5.340;2024-03-29T10:29:33;15.10;99.90
40848;DHT22;26570;50.962;5.340;2024-03-29T10:32:18;15.20;99.90
40848;DHT22;26570;50.962;5.340;2024-03-29T10:35:04;15.40;99.90
40848;DHT22;26570;50.962;5.340;2024-03-29T10:38:12;15.40;99.90
40848;DHT22;26570;50.962;5.340;2024-03-29T10:41:19;15.90;99.90
40848;DHT22;26570;50.962;5.340;2024-03-29T10:44:05;15.80;99.90
40848;DHT22;26570;50.962;5.340;2024-03-29T10:46:56;15.80;99.90
40848;DHT22;26570;50.962;5.340;2024-03-29T10:49:42;15.80;99.90
40848;DHT22;26570;50.962;5.340;2024-03-29T10:52:50;15.80;99.90
40848;DHT22;26570;50.962;5.340;2024-03-29T10:55:37;15.90;99.90
40848;DHT22;26570;50.962;5.340;2024-03-29T10:58:29;16.30;99.90
40848;DHT22;26570;50.962;5.340;2024-03-29T11:01:19;16.70;99.90
40848;DHT22;26570;50.962;5.340;2024-03-29T11:04:12;16.60;99.90
40848;DHT22;26570;50.962;5.340;2024-03-29T11:07:21;16.50;99.90
40848;DHT22;26570;50.962;5.340;2024-03-29T11:10:43;15.80;99.90
40848;DHT22;26570;50.962;5.340;2024-03-29T11:13:43;15.60;99.90
40848;DHT22;26570;50.962;5.340;2024-03-29T11:16:30;15.60;99.90
40848;DHT22;26570;50.962;5.340;2024-03-29T11:19:38;15.90;99.90
40848;DHT22;26570;50.962;5.340;2024-03-29T11:22:52;16.00;99.90
40848;DHT22;26570;50.962;5.340;2024-03-29T11:25:39;15.50;99.90
40848;DHT22;26570;50.962;5.340;2024-03-29T11:28:28;15.30;99.90
40848;DHT22;26570;50.962;5.340;2024-03-29T11:31:38;15.20;99.90
40848;DHT22;26570;50.962;5.340;2024-03-29T11:34:24;15.20;99.90
40848;DHT22;26570;50.962;5.340;2024-03-29T11:37:32;15.20;99.90
40848;DHT22;26570;50.962;5.340;2024-03-29T11:40:17;15.30;99.90
40848;DHT22;26570;50.962;5.340;2024-03-29T11:43:06;15.30;99.90
40848;DHT22;26570;50.962;5.340;2024-03-29T11:46:15;15.40;99.90
40848;DHT22;26570;50.962;5.340;2024-03-29T11:49:09;15.80;99.90
40848;DHT22;26570;50.962;5.340;2024-03-29T11:52:07;16.00;99.90
40848;DHT22;26570;50.962;5.340;2024-03-29T11:54:54;16.10;99.90
40848;DHT22;26570;50.962;5.340;2024-03-29T11:57:39;16.10;99.90
40848;DHT22;26570;50.962;5.340;2024-03-29T12:00:25;16.10;99.90
40848;DHT22;26570;50.962;5.340;2024-03-29T12:03:18;16.10;99.90
40848;DHT22;26570;50.962;5.340;2024-03-29T12:06:04;16.10;99.90
40848;DHT22;26570;50.962;5.340;2024-03-29T12:08:50;16.30;99.90
40848;DHT22;26570;50.962;5.340;2024-03-29T12:11:37;16.60;99.90
40848;DHT22;26570;50.962;5.340;2024-03-29T12:14:50;16.70;99.90
40848;DHT22;26570;50.962;5.340;2024-03-29T12:17:59;16.90;99.90
40848;DHT22;26570;50.962;5.340;2024-03-29T12:20:44;16.90;99.90
40848;DHT22;26570;50.962;5.340;2024-03-29T12:23:34;17.10;99.90
40848;DHT22;26570;50.962;5.340;2024-03-29T12:26:20;17.10;99.90
40848;DHT22;26570;50.962;5.340;2024-03-29T12:29:06;17.10;99.90
40848;DHT22;26570;50.962;5.340;2024-03-29T12:32:01;17.30;99.90
40848;DHT22;26570;50.962;5.340;2024-03-29T12:34:47;17.40;99.90
40848;DHT22;26570;50.962;5.340;2024-03-29T12:37:32;17.60;99.90
40848;DHT22;26570;50.962;5.340;2024-03-29T12:40:17;17.60;99.90
40848;DHT22;26570;50.962;5.340;2024-03-29T12:43:07;17.90;99.90
40848;DHT22;26570;50.962;5.340;2024-03-29T12:45:55;17.90;99.90
40848;DHT22;26570;50.962;5.340;2024-03-29T12:49:03;17.90;99.90
40848;DHT22;26570;50.962;5.340;2024-03-29T12:52:10;18.30;99.90
40848;DHT22;26570;50.962;5.340;2024-03-29T12:54:56;17.90;99.90
40848;DHT22;26570;50.962;5.340;2024-03-29T12:57:41;17.70;99.90
40848;DHT22;26570;50.962;5.340;2024-03-29T13:00:50;17.80;99.90
40848;DHT22;26570;50.962;5.340;2024-03-29T13:03:35;17.80;99.90
40848;DHT22;26570;50.962;5.340;2024-03-29T13:06:22;18.00;99.90
40848;DHT22;26570;50.962;5.340;2024-03-29T13:09:07;17.90;99.90
40848;DHT22;26570;50.962;5.340;2024-03-29T13:11:53;17.80;99.90
40848;DHT22;26570;50.962;5.340;2024-03-29T13:14:38;17.90;99.90
40848;DHT22;26570;50.962;5.340;2024-03-29T13:17:23;17.60;99.90
40848;DHT22;26570;50.962;5.340;2024-03-29T13:20:32;17.40;99.90
40848;DHT22;26570;50.962;5.340;2024-03-29T13:23:19;17.60;99.90
40848;DHT22;26570;50.962;5.340;2024-03-29T13:26:26;17.90;99.90
40848;DHT22;26570;50.962;5.340;2024-03-29T13:29:13;17.80;99.90
40848;DHT22;26570;50.962;5.340;2024-03-29T13:32:00;17.70;99.90
40848;DHT22;26570;50.962;5.340;2024-03-29T13:34:44;17.60;99.90
40848;DHT22;26570;50.962;5.340;2024-03-29T13:37:29;17.60;99.90
40848;DHT22;26570;50.962;5.340;2024-03-29T13:40:16;17.60;99.90
40848;DHT22;26570;50.962;5.340;2024-03-29T13:43:04;17.50;99.90
40848;DHT22;26570;50.962;5.340;2024-03-29T13:45:49;17.40;99.90
40848;DHT22;26570;50.962;5.340;2024-03-29T13:48:35;17.20;99.90
40848;DHT22;26570;50.962;5.340;2024-03-29T13:51:20;17.30;99.90
40848;DHT22;26570;50.962;5.340;2024-03-29T13:54:05;17.10;99.90
40848;DHT22;26570;50.962;5.340;2024-03-29T13:57:18;17.50;99.90
40848;DHT22;26570;50.962;5.340;2024-03-29T14:00:07;17.30;99.90
40848;DHT22;26570;50.962;5.340;2024-03-29T14:02:52;17.30;99.90
40848;DHT22;26570;50.962;5.340;2024-03-29T14:05:37;17.50;99.90
40848;DHT22;26570;50.962;5.340;2024-03-29T14:08:50;17.40;99.90
40848;DHT22;26570;50.962;5.340;2024-03-29T14:11:58;17.50;99.90
40848;DHT22;26570;50.962;5.340;2024-03-29T14:15:06;17.50;99.90
40848;DHT22;26570;50.962;5.340;2024-03-29T14:17:51;17.50;99.90
40848;DHT22;26570;50.962;5.340;2024-03-29T14:20:36;17.50;99.90
40848;DHT22;26570;50.962;5.340;2024-03-29T14:23:21;17.50;99.90
40848;DHT22;26570;50.962;5.340;2024-03-29T14:26:32;17.70;99.90
40848;DHT22;26570;50.962;5.340;2024-03-29T14:29:18;17.80;99.90
40848;DHT22;26570;50.962;5.340;2024-03-29T14:32:28;17.70;99.90
40848;DHT22;26570;50.962;5.340;2024-03-29T14:35:13;17.70;99.90
40848;DHT22;26570;50.962;5.340;2024-03-29T14:37:59;17.70;99.90
40848;DHT22;26570;50.962;5.340;2024-03-29T14:40:45;17.70;99.90
40848;DHT22;26570;50.962;5.340;2024-03-29T14:43:31;18.00;99.90
40848;DHT22;26570;50.962;5.340;2024-03-29T14:46:16;18.00;99.90
40848;DHT22;26570;50.962;5.340;2024-03-29T14:49:02;18.20;99.90
40848;DHT22;26570;50.962;5.340;2024-03-29T14:51:52;17.70;99.90
40848;DHT22;26570;50.962;5.340;2024-03-29T14:55:05;17.30;99.90
40848;DHT22;26570;50.962;5.340;2024-03-29T14:58:12;17.10;99.90
40848;DHT22;26570;50.962;5.340;2024-03-29T15:01:20;17.10;99.90
40848;DHT22;26570;50.962;5.340;2024-03-29T15:04:05;16.90;99.90
40848;DHT22;26570;50.962;5.340;2024-03-29T15:06:50;17.10;99.90
40848;DHT22;26570;50.962;5.340;2024-03-29T15:09:36;17.10;99.90
40848;DHT22;26570;50.962;5.340;2024-03-29T15:12:44;17.30;99.90
40848;DHT22;26570;50.962;5.340;2024-03-29T15:15:31;17.30;99.90
40848;DHT22;26570;50.962;5.340;2024-03-29T15:18:19;17.40;99.90
40848;DHT22;26570;50.962;5.340;2024-03-29T15:21:05;17.30;99.90
40848;DHT22;26570;50.962;5.340;2024-03-29T15:24:16;17.40;99.90
40848;DHT22;26570;50.962;5.340;2024-03-29T15:27:01;17.20;99.90
40848;DHT22;26570;50.962;5.340;2024-03-29T15:29:47;17.30;99.90
40848;DHT22;26570;50.962;5.340;2024-03-29T15:32:33;17.60;99.90
40848;DHT22;26570;50.962;5.340;2024-03-29T15:35:21;17.70;99.90
40848;DHT22;26570;50.962;5.340;2024-03-29T15:38:06;17.80;99.90
40848;DHT22;26570;50.962;5.340;2024-03-29T15:40:56;17.90;99.90
40848;DHT22;26570;50.962;5.340;2024-03-29T15:43:42;18.20;99.90
40848;DHT22;26570;50.962;5.340;2024-03-29T15:47:05;18.20;99.90
40848;DHT22;26570;50.962;5.340;2024-03-29T15:49:55;17.90;99.90
40848;DHT22;26570;50.962;5.340;2024-03-29T15:52:40;17.70;99.90
40848;DHT22;26570;50.962;5.340;2024-03-29T15:55:25;17.70;99.90
40848;DHT22;26570;50.962;5.340;2024-03-29T15:58:33;17.80;99.90
40848;DHT22;26570;50.962;5.340;2024-03-29T16:01:40;17.80;99.90
40848;DHT22;26570;50.962;5.340;2024-03-29T16:04:25;17.70;99.90
40848;DHT22;26570;50.962;5.340;2024-03-29T16:07:38;17.60;99.90
40848;DHT22;26570;50.962;5.340;2024-03-29T16:10:23;17.60;99.90
40848;DHT22;26570;50.962;5.340;2024-03-29T16:13:09;17.60;99.90
40848;DHT22;26570;50.962;5.340;2024-03-29T16:15:58;17.60;99.90
40848;DHT22;26570;50.962;5.340;2024-03-29T16:18:43;17.70;99.90
40848;DHT22;26570;50.962;5.340;2024-03-29T16:21:29;17.70;99.90
40848;DHT22;26570;50.962;5.340;2024-03-29T16:24:41;17.60;99.90
40848;DHT22;26570;50.962;5.340;2024-03-29T16:27:26;17.50;99.90
40848;DHT22;26570;50.962;5.340;2024-03-29T16:30:34;17.50;99.90
40848;DHT22;26570;50.962;5.340;2024-03-29T16:33:19;17.40;99.90
40848;DHT22;26570;50.962;5.340;2024-03-29T16:36:26;17.30;99.90
40848;DHT22;26570;50.962;5.340;2024-03-29T16:39:34;17.20;99.90
40848;DHT22;26570;50.962;5.340;2024-03-29T16:42:19;16.90;99.90
40848;DHT22;26570;50.962;5.340;2024-03-29T16:45:04;16.70;99.90
40848;DHT22;26570;50.962;5.340;2024-03-29T16:48:12;16.80;99.90
40848;DHT22;26570;50.962;5.340;2024-03-29T16:50:57;16.70;99.90
40848;DHT22;26570;50.962;5.340;2024-03-29T16:53:42;16.60;99.90
40848;DHT22;26570;50.962;5.340;2024-03-29T16:56:51;16.40;99.90
40848;DHT22;26570;50.962;5.340;2024-03-29T16:59:36;16.40;99.90
40848;DHT22;26570;50.962;5.340;2024-03-29T17:02:21;16.40;99.90
40848;DHT22;26570;50.962;5.340;2024-03-29T17:05:07;16.30;99.90
40848;DHT22;26570;50.962;5.340;2024-03-29T17:07:52;16.10;99.90
40848;DHT22;26570;50.962;5.340;2024-03-29T17:10:59;16.00;99.90
40848;DHT22;26570;50.962;5.340;2024-03-29T17:13:44;16.00;99.90
40848;DHT22;26570;50.962;5.340;2024-03-29T17:16:52;16.00;99.90
40848;DHT22;26570;50.962;5.340;2024-03-29T17:19:40;15.80;99.90
40848;DHT22;26570;50.962;5.340;2024-03-29T17:22:25;15.90;99.90
40848;DHT22;26570;50.962;5.340;2024-03-29T17:25:13;15.60;99.90
40848;DHT22;26570;50.962;5.340;2024-03-29T17:27:58;15.50;99.90
40848;DHT22;26570;50.962;5.340;2024-03-29T17:31:20;15.50;99.90
40848;DHT22;26570;50.962;5.340;2024-03-29T17:34:09;15.40;99.90
40848;DHT22;26570;50.962;5.340;2024-03-29T17:36:57;15.40;99.90
40848;DHT22;26570;50.962;5.340;2024-03-29T17:39:42;15.50;99.90
40848;DHT22;26570;50.962;5.340;2024-03-29T17:42:27;15.60;99.90
40848;DHT22;26570;50.962;5.340;2024-03-29T17:45:34;15.30;99.90
40848;DHT22;26570;50.962;5.340;2024-03-29T17:48:46;15.20;99.90
40848;DHT22;26570;50.962;5.340;2024-03-29T17:51:31;15.20;99.90
40848;DHT22;26570;50.962;5.340;2024-03-29T17:54:18;15.10;99.90
40848;DHT22;26570;50.962;5.340;2024-03-29T17:57:03;15.00;99.90
40848;DHT22;26570;50.962;5.340;2024-03-29T17:59:49;15.00;99.90
40848;DHT22;26570;50.962;5.340;2024-03-29T18:02:34;14.90;99.90
40848;DHT22;26570;50.962;5.340;2024-03-29T18:05:20;14.80;99.90
40848;DHT22;26570;50.962;5.340;2024-03-29T18:08:33;14.80;99.90
40848;DHT22;26570;50.962;5.340;2024-03-29T18:11:18;14.70;99.90
40848;DHT22;26570;50.962;5.340;2024-03-29T18:14:04;14.80;99.90
40848;DHT22;26570;50.962;5.340;2024-03-29T18:16:49;14.80;99.90
40848;DHT22;26570;50.962;5.340;2024-03-29T18:19:34;14.70;99.90
40848;DHT22;26570;50.962;5.340;2024-03-29T18:22:42;14.50;99.90